Time;durP1;ratioP1;P1;durP2;ratioP2;P2;SDS_P1;SDS_P2;PMS_P1;PMS_P2;Temp;Humidity;BMP_temperature;BMP_pressure;BME280_temperature;BME280_humidity;BME280_pressure;Samples;Min_cycle;Max_cycle;Signal;HPM_P1;HPM_P2
2023/01/28 00:02:16;;;;;;;17.75;11.10;;;;;;;0.64;73.52;97157.72;6251593;23;20024;-79
2023/01/28 00:04:44;;;;;;;17.98;11.80;;;;;;;0.68;74.09;97158.28;6253584;23;20329;-78
2023/01/28 00:07:11;;;;;;;20.33;12.50;;;;;;;0.73;73.86;97161.38;6251577;23;20491;-77
2023/01/28 00:09:39;;;;;;;18.13;11.25;;;;;;;0.74;73.84;97155.31;6246982;23;20020;-77
2023/01/28 00:12:08;;;;;;;17.73;10.27;;;;;;;0.71;73.62;97151.22;6247486;23;20020;-77
2023/01/28 00:14:36;;;;;;;15.93;10.20;;;;;;;0.66;73.22;97150.72;6246010;23;20027;-76
2023/01/28 00:17:05;;;;;;;19.27;11.13;;;;;;;0.64;73.50;97156.91;6245529;23;20020;-76
2023/01/28 00:19:32;;;;;;;17.80;11.32;;;;;;;0.61;73.52;97157.91;6244880;23;20020;-76
2023/01/28 00:22:00;;;;;;;19.00;10.80;;;;;;;0.63;73.92;97156.06;6245530;23;20106;-76
2023/01/28 00:24:28;;;;;;;15.93;9.48;;;;;;;0.63;73.77;97166.31;6245475;23;20235;-76
2023/01/28 00:26:56;;;;;;;16.33;9.93;;;;;;;0.65;74.08;97164.47;6245322;23;20016;-76
2023/01/28 00:29:25;;;;;;;18.55;10.57;;;;;;;0.66;73.97;97165.31;6244212;23;20016;-77
2023/01/28 00:31:52;;;;;;;20.80;10.70;;;;;;;0.65;73.59;97159.34;6245433;23;20022;-76
2023/01/28 00:34:21;;;;;;;18.73;10.45;;;;;;;0.64;73.60;97165.41;6245997;23;20487;-77
2023/01/28 00:36:56;;;;;;;18.60;11.20;;;;;;;0.63;73.78;97160.38;6244671;23;20024;-76
2023/01/28 00:39:25;;;;;;;18.45;10.32;;;;;;;0.62;73.83;97164.69;6252916;23;20020;-78
2023/01/28 00:41:53;;;;;;;18.63;10.20;;;;;;;0.59;73.45;97160.59;6249778;23;20054;-78
2023/01/28 00:44:21;;;;;;;16.00;10.25;;;;;;;0.57;73.53;97148.78;6245882;23;20028;-76
2023/01/28 00:46:50;;;;;;;18.52;9.93;;;;;;;0.58;73.80;97155.56;6245640;23;20338;-76
2023/01/28 00:49:18;;;;;;;15.05;9.63;;;;;;;0.58;73.85;97151.22;6244729;23;20020;-77
2023/01/28 00:51:47;;;;;;;18.60;10.30;;;;;;;0.59;73.45;97152.91;6245854;23;20198;-76
2023/01/28 00:54:15;;;;;;;12.23;8.23;;;;;;;0.57;73.38;97149.59;6245757;23;20031;-76
2023/01/28 00:56:42;;;;;;;14.38;9.00;;;;;;;0.52;73.63;97154.22;6258636;22;20032;-77
2023/01/28 00:59:10;;;;;;;16.35;9.25;;;;;;;0.49;73.94;97151.06;6271531;22;20071;-78
2023/01/28 01:01:38;;;;;;;14.73;9.20;;;;;;;0.50;73.79;97152.69;6271689;22;20029;-78
2023/01/28 01:04:07;;;;;;;18.52;9.52;;;;;;;0.54;74.84;97151.56;6248682;23;20020;-76
2023/01/28 01:06:37;;;;;;;15.38;9.57;;;;;;;0.58;74.75;97158.94;6246249;23;20415;-76
2023/01/28 01:09:07;;;;;;;16.42;9.57;;;;;;;0.61;75.12;97156.19;6245073;23;20017;-76
2023/01/28 01:11:35;;;;;;;14.30;9.30;;;;;;;0.67;75.26;97156.66;6246822;23;20077;-76
2023/01/28 01:14:04;;;;;;;16.33;10.27;;;;;;;0.71;75.03;97158.91;6245455;23;20027;-77
2023/01/28 01:16:34;;;;;;;14.15;8.75;;;;;;;0.73;75.60;97164.75;6245699;23;20347;-76
2023/01/28 01:19:03;;;;;;;15.50;9.98;;;;;;;0.76;75.60;97167.09;6245076;23;20039;-76
2023/01/28 01:21:31;;;;;;;13.57;9.05;;;;;;;0.76;76.01;97158.59;6245640;23;20091;-77
2023/01/28 01:23:59;;;;;;;16.85;9.50;;;;;;;0.77;75.79;97163.63;6245502;23;20459;-76
2023/01/28 01:26:27;;;;;;;15.77;9.98;;;;;;;0.78;75.35;97170.41;6245910;23;20027;-77
2023/01/28 01:28:55;;;;;;;14.55;9.80;;;;;;;0.81;75.77;97170.19;6243939;23;20016;-77
2023/01/28 01:31:22;;;;;;;18.75;9.65;;;;;;;0.81;75.39;97177.91;6246410;23;20024;-77
2023/01/28 01:33:51;;;;;;;13.93;8.85;;;;;;;0.82;75.48;97182.09;6246161;23;20051;-76
2023/01/28 01:36:20;;;;;;;15.68;9.80;;;;;;;0.81;75.46;97175.34;6247495;23;20047;-77
2023/01/28 01:38:53;;;;;;;14.98;9.48;;;;;;;0.78;75.33;97175.53;6246939;23;20016;-77
2023/01/28 01:41:26;;;;;;;14.00;9.15;;;;;;;0.81;75.96;97188.19;6247803;23;20028;-76
2023/01/28 01:43:56;;;;;;;15.30;9.13;;;;;;;0.84;75.80;97183.75;6247687;23;20024;-76
2023/01/28 01:46:32;;;;;;;14.45;9.23;;;;;;;0.82;75.48;97184.66;6246856;23;20020;-76
2023/01/28 01:49:07;;;;;;;14.25;8.60;;;;;;;0.84;76.62;97188.88;6246301;23;20024;-77
2023/01/28 01:51:36;;;;;;;13.82;9.15;;;;;;;0.81;75.16;97188.19;6247046;23;20024;-77
2023/01/28 01:54:06;;;;;;;16.80;9.80;;;;;;;0.74;75.08;97198.97;6247322;23;20020;-76
2023/01/28 01:56:38;;;;;;;15.88;9.15;;;;;;;0.66;75.33;97186.66;6246738;23;20134;-77
2023/01/28 01:59:12;;;;;;;13.98;8.32;;;;;;;0.65;75.60;97197.84;6246494;23;20052;-77
2023/01/28 02:01:40;;;;;;;11.95;7.95;;;;;;;0.67;76.06;97198.56;6246884;23;20030;-77
2023/01/28 02:04:12;;;;;;;13.88;8.98;;;;;;;0.69;75.53;97193.34;6247025;23;20035;-76
2023/01/28 02:06:41;;;;;;;13.43;8.88;;;;;;;0.67;75.55;97190.88;6247093;23;20024;-77
2023/01/28 02:09:24;;;;;;;13.88;9.18;;;;;;;0.72;76.68;97193.94;6245953;23;20119;-76
2023/01/28 02:11:54;;;;;;;15.00;9.35;;;;;;;0.74;76.16;97189.50;6247088;23;20095;-76
2023/01/28 02:14:24;;;;;;;13.35;8.25;;;;;;;0.77;76.13;97189.31;6247118;23;20024;-76
2023/01/28 02:16:58;;;;;;;13.52;8.15;;;;;;;0.81;75.84;97185.59;6247161;23;20046;-77
2023/01/28 02:19:32;;;;;;;14.57;9.05;;;;;;;0.80;75.53;97194.22;6245798;23;20051;-77
2023/01/28 02:22:45;;;;;;;14.68;9.07;;;;;;;0.80;75.10;97194.22;6246585;23;20035;-77
2023/01/28 02:25:48;;;;;;;12.63;7.75;;;;;;;0.79;74.87;97181.50;6178591;23;20091;-76
2023/01/28 02:28:27;;;;;;;12.40;8.55;;;;;;;0.75;75.00;97191.16;6245921;23;20024;-76
2023/01/28 02:31:01;;;;;;;14.52;9.30;;;;;;;0.73;75.22;97190.44;6247099;23;20079;-76
2023/01/28 02:33:35;;;;;;;14.05;9.20;;;;;;;0.75;75.45;97192.91;6246742;23;20479;-77
2023/01/28 02:36:09;;;;;;;14.10;8.70;;;;;;;0.76;75.04;97190.22;6246366;23;20067;-77
2023/01/28 02:38:42;;;;;;;13.98;9.30;;;;;;;0.74;74.79;97184.38;6246034;23;20024;-76
2023/01/28 02:41:16;;;;;;;15.43;8.77;;;;;;;0.76;75.75;97182.50;6246950;23;20092;-76
2023/01/28 02:43:46;;;;;;;15.38;8.73;;;;;;;0.78;75.47;97185.81;6246961;23;20026;-76
2023/01/28 02:49:11;;;;;;;13.30;8.55;;;;;;;0.72;74.58;97188.81;6245821;23;20023;-77
2023/01/28 02:52:02;;;;;;;12.02;8.52;;;;;;;0.69;75.54;97194.16;6246750;23;20376;-76
2023/01/28 02:54:38;;;;;;;14.88;8.82;;;;;;;0.69;74.96;97191.59;6246592;23;20024;-76
2023/01/28 02:57:17;;;;;;;15.70;8.85;;;;;;;0.69;75.19;97185.63;6245994;23;20098;-76
2023/01/28 02:59:52;;;;;;;13.73;8.70;;;;;;;0.68;74.98;97186.53;6246019;23;20016;-76
2023/01/28 03:02:26;;;;;;;13.48;8.88;;;;;;;0.66;75.11;97176.41;6246615;23;20103;-77
2023/01/28 03:05:00;;;;;;;16.02;8.80;;;;;;;0.64;74.73;97183.38;6245732;23;20035;-77
2023/01/28 03:07:32;;;;;;;14.10;8.68;;;;;;;0.65;75.71;97185.00;6246101;23;20056;-77
2023/01/28 03:10:03;;;;;;;12.63;8.85;;;;;;;0.67;75.26;97177.22;6245746;23;20095;-77
2023/01/28 03:37:54;;;;;;;11.32;7.68;;;;;;;0.74;75.55;97196.41;6232082;22;20040;-79
2023/01/28 03:40:21;;;;;;;12.77;8.95;;;;;;;0.78;75.91;97198.63;6220675;23;20016;-79
2023/01/28 03:42:51;;;;;;;16.95;9.52;;;;;;;0.80;75.72;97191.66;6217134;23;20024;-79
2023/01/28 03:45:20;;;;;;;13.27;8.90;;;;;;;0.78;75.37;97196.06;6216626;23;20364;-79
2023/01/28 03:47:49;;;;;;;11.68;7.50;;;;;;;0.78;75.32;97201.22;6236812;23;20027;-79
2023/01/28 03:50:16;;;;;;;12.77;8.82;;;;;;;0.76;75.10;97200.50;6246861;23;20099;-78
2023/01/28 03:52:44;;;;;;;12.30;8.95;;;;;;;0.75;75.34;97204.00;6246671;23;20043;-78
2023/01/28 03:55:13;;;;;;;13.68;9.00;;;;;;;0.80;75.78;97216.53;6246171;23;20478;-78
2023/01/28 03:57:43;;;;;;;13.27;9.50;;;;;;;0.81;75.17;97213.84;6246250;23;20078;-79
2023/01/28 04:00:12;;;;;;;12.30;8.48;;;;;;;0.81;75.28;97216.44;6246292;23;20020;-79
2023/01/28 04:02:40;;;;;;;13.98;9.07;;;;;;;0.85;74.97;97205.94;6246490;23;20024;-78
2023/01/28 04:05:13;;;;;;;13.27;9.25;;;;;;;0.85;74.80;97213.63;6246510;23;20352;-79
2023/01/28 04:07:41;;;;;;;12.85;8.90;;;;;;;0.84;74.53;97206.88;6246994;23;20031;-78
2023/01/28 04:10:10;;;;;;;13.10;8.32;;;;;;;0.83;74.52;97208.59;6246241;23;20095;-79
2023/01/28 04:12:37;;;;;;;13.52;8.38;;;;;;;0.81;74.44;97213.84;6246230;23;20043;-79
2023/01/28 04:15:14;;;;;;;15.13;8.60;;;;;;;0.82;74.99;97217.25;6246181;23;20016;-79
2023/01/28 04:17:45;;;;;;;12.77;8.43;;;;;;;0.86;74.82;97212.72;6246516;23;20024;-79
2023/01/28 04:20:14;;;;;;;12.27;8.20;;;;;;;0.86;74.66;97213.53;6246314;23;20055;-80
2023/01/28 04:22:42;;;;;;;12.25;8.63;;;;;;;0.89;74.33;97212.50;6245867;23;20024;-78
2023/01/28 04:25:10;;;;;;;12.27;8.20;;;;;;;0.90;74.57;97214.16;6246311;23;20091;-79
2023/01/28 04:27:38;;;;;;;12.63;8.85;;;;;;;0.91;74.54;97220.91;6246342;23;20024;-79
2023/01/28 04:30:06;;;;;;;11.35;8.68;;;;;;;0.94;74.37;97220.69;6245571;23;20531;-79
2023/01/28 04:32:35;;;;;;;11.18;7.90;;;;;;;0.97;75.20;97220.50;6246394;23;20359;-79
2023/01/28 04:35:03;;;;;;;12.88;8.65;;;;;;;1.01;74.55;97232.22;6245986;23;20103;-78
2023/01/28 04:37:31;;;;;;;11.18;8.02;;;;;;;1.01;74.11;97224.50;6245682;23;20012;-79
2023/01/28 04:39:59;;;;;;;13.02;8.75;;;;;;;1.00;74.02;97233.94;6244894;23;20027;-79
2023/01/28 04:42:26;;;;;;;10.80;7.47;;;;;;;0.98;74.04;97233.25;6245969;23;20122;-78
2023/01/28 04:44:54;;;;;;;12.10;7.60;;;;;;;0.96;73.43;97239.41;6246596;23;20052;-78
2023/01/28 04:47:22;;;;;;;10.73;7.30;;;;;;;0.93;73.81;97239.63;6245481;23;20027;-78
2023/01/28 04:49:49;;;;;;;14.73;8.25;;;;;;;0.93;73.74;97239.63;6245172;23;20063;-79
2023/01/28 04:52:17;;;;;;;11.10;8.05;;;;;;;0.91;73.78;97246.59;6245630;23;20468;-79
2023/01/28 04:54:46;;;;;;;13.05;8.10;;;;;;;0.88;73.73;97247.66;6245799;23;20115;-79
2023/01/28 04:57:14;;;;;;;10.75;7.22;;;;;;;0.87;73.50;97252.88;6246226;23;20054;-79
2023/01/28 04:59:42;;;;;;;10.77;7.25;;;;;;;0.85;74.08;97252.97;6245742;23;20020;-79
2023/01/28 05:02:09;;;;;;;11.05;7.45;;;;;;;0.86;73.89;97253.81;6246118;23;20051;-79
2023/01/28 05:04:37;;;;;;;11.93;8.02;;;;;;;0.85;73.84;97250.41;6245704;23;20452;-78
2023/01/28 05:07:04;;;;;;;13.68;7.70;;;;;;;0.85;73.48;97257.28;6246074;23;20099;-79
2023/01/28 05:09:32;;;;;;;10.18;7.13;;;;;;;0.87;74.29;97252.88;6245169;23;20393;-79
2023/01/28 05:12:01;;;;;;;11.90;8.30;;;;;;;0.87;74.11;97261.41;6245588;23;20024;-79
2023/01/28 05:14:28;;;;;;;11.43;8.05;;;;;;;0.86;73.88;97261.53;6245404;23;20051;-79
2023/01/28 05:16:56;;;;;;;10.98;7.78;;;;;;;0.85;74.20;97252.97;6245184;23;20022;-79
2023/01/28 05:19:24;;;;;;;14.13;8.38;;;;;;;0.87;73.78;97260.59;6244844;23;20020;-79
2023/01/28 05:21:51;;;;;;;12.80;7.35;;;;;;;0.88;74.22;97262.25;6245778;23;20355;-79
2023/01/28 05:24:20;;;;;;;12.75;8.52;;;;;;;0.89;73.88;97261.31;6245912;23;20024;-78
2023/01/28 05:26:48;;;;;;;11.30;8.27;;;;;;;0.92;74.16;97272.19;6245944;23;20024;-79
2023/01/28 05:29:16;;;;;;;12.93;8.10;;;;;;;0.94;73.94;97266.94;6245160;23;20024;-78
2023/01/28 05:31:44;;;;;;;12.05;8.23;;;;;;;0.95;73.58;97266.03;6245115;23;20016;-78
2023/01/28 05:34:11;;;;;;;12.90;8.30;;;;;;;0.95;73.74;97260.88;6245860;23;20026;-79
2023/01/28 05:36:40;;;;;;;13.07;8.48;;;;;;;0.93;73.39;97260.97;6245264;23;20016;-79
2023/01/28 05:39:07;;;;;;;12.40;8.50;;;;;;;0.95;73.54;97258.31;6244766;23;20023;-79
2023/01/28 05:41:35;;;;;;;10.38;7.20;;;;;;;0.95;73.46;97256.56;6245640;23;20074;-79
2023/01/28 05:44:03;;;;;;;10.57;7.25;;;;;;;0.98;73.58;97258.09;6245418;23;20539;-80
2023/01/28 05:46:31;;;;;;;9.95;7.50;;;;;;;0.99;73.11;97259.75;6245289;23;20020;-78
2023/01/28 05:48:59;;;;;;;11.05;7.85;;;;;;;0.97;72.70;97256.47;6244431;23;20468;-79
2023/01/28 05:51:27;;;;;;;13.45;8.40;;;;;;;0.93;72.92;97250.72;6245335;23;20547;-80
2023/01/28 05:53:54;;;;;;;10.80;7.00;;;;;;;0.92;72.66;97258.50;6245640;23;20020;-79
2023/01/28 05:56:22;;;;;;;12.48;8.48;;;;;;;0.89;72.43;97263.88;6245153;23;20016;-79
2023/01/28 05:58:49;;;;;;;13.63;8.85;;;;;;;0.87;72.65;97263.16;6244971;23;20065;-79
2023/01/28 06:01:17;;;;;;;11.10;7.63;;;;;;;0.86;72.63;97264.91;6246155;23;20066;-79
2023/01/28 06:03:46;;;;;;;10.95;7.63;;;;;;;0.84;72.50;97269.31;6245572;23;20059;-79
2023/01/28 06:06:13;;;;;;;10.82;7.25;;;;;;;0.82;72.60;97264.28;6245904;23;20030;-79
2023/01/28 06:08:41;;;;;;;11.23;8.18;;;;;;;0.81;72.90;97275.50;6245262;23;20426;-79
2023/01/28 06:11:08;;;;;;;10.63;7.28;;;;;;;0.82;72.97;97266.84;6246381;23;20016;-79
2023/01/28 06:13:36;;;;;;;9.40;7.38;;;;;;;0.84;72.90;97273.66;6245742;23;20020;-79
2023/01/28 06:16:04;;;;;;;10.07;6.90;;;;;;;0.82;72.50;97272.00;6245134;23;20016;-78
2023/01/28 06:18:32;;;;;;;12.70;8.38;;;;;;;0.83;72.54;97285.66;6244820;23;20027;-79
2023/01/28 06:21:01;;;;;;;11.32;7.53;;;;;;;0.83;72.82;97290.78;6245488;23;20103;-79
2023/01/28 06:23:28;;;;;;;11.98;8.15;;;;;;;0.86;72.66;97289.78;6257361;23;20044;-79
2023/01/28 06:25:57;;;;;;;10.38;7.53;;;;;;;0.86;72.63;97290.59;6260785;23;20050;-79
2023/01/28 06:28:25;;;;;;;11.52;7.95;;;;;;;0.88;72.91;97304.16;6250136;23;20024;-79
2023/01/28 06:30:53;;;;;;;10.70;7.68;;;;;;;0.91;73.02;97315.97;6247934;23;20103;-79
2023/01/28 06:33:21;;;;;;;10.68;7.32;;;;;;;0.95;72.93;97309.69;6247724;23;20028;-78
2023/01/28 06:35:48;;;;;;;10.30;7.45;;;;;;;0.97;72.94;97300.94;6247846;23;20063;-79
2023/01/28 06:38:17;;;;;;;9.60;6.93;;;;;;;0.97;72.00;97308.66;6246109;23;20408;-79
2023/01/28 06:40:45;;;;;;;9.95;6.75;;;;;;;0.96;72.36;97319.03;6246633;23;20050;-79
2023/01/28 06:43:12;;;;;;;12.15;7.80;;;;;;;0.92;72.30;97321.00;6247159;23;20096;-79
2023/01/28 06:45:40;;;;;;;12.18;8.32;;;;;;;0.90;72.34;97319.47;6247182;23;20619;-79
2023/01/28 06:48:07;;;;;;;11.43;7.80;;;;;;;0.91;72.72;97324.47;6246354;23;20067;-79
2023/01/28 06:50:35;;;;;;;13.13;8.00;;;;;;;0.96;73.02;97326.72;6247323;23;20024;-79
2023/01/28 06:53:03;;;;;;;11.27;7.97;;;;;;;0.98;72.38;97324.88;6247409;23;20016;-79
2023/01/28 06:55:32;;;;;;;11.68;8.02;;;;;;;0.96;72.40;97331.88;6247798;23;20107;-79
2023/01/28 06:57:59;;;;;;;13.55;8.90;;;;;;;0.96;72.28;97332.72;6246612;23;20077;-78
2023/01/28 07:00:27;;;;;;;12.23;7.95;;;;;;;0.92;71.99;97336.41;6247691;23;20031;-79
2023/01/28 07:02:55;;;;;;;10.73;8.00;;;;;;;0.91;72.13;97341.66;6246489;23;20457;-79
2023/01/28 07:05:23;;;;;;;12.40;8.68;;;;;;;0.92;72.66;97348.41;6247313;23;20079;-79
2023/01/28 07:07:51;;;;;;;13.10;8.88;;;;;;;0.93;72.09;97338.03;6246264;23;20027;-79
2023/01/28 07:10:19;;;;;;;14.85;8.68;;;;;;;0.97;72.01;97346.38;6246844;23;20016;-79
2023/01/28 07:12:48;;;;;;;14.40;9.38;;;;;;;0.96;72.28;97344.72;6248198;23;20020;-79
2023/01/28 07:15:15;;;;;;;12.40;8.75;;;;;;;0.99;72.72;97347.09;6249326;23;20023;-79
2023/01/28 07:17:43;;;;;;;14.68;9.52;;;;;;;1.07;74.20;97354.28;6249239;23;20016;-78
2023/01/28 07:20:14;;;;;;;12.35;8.40;;;;;;;1.09;73.37;97352.41;6264392;22;20023;-80
2023/01/28 07:22:43;;;;;;;12.02;8.15;;;;;;;1.04;72.52;97347.59;6271899;22;20020;-79
2023/01/28 07:25:13;;;;;;;13.55;8.80;;;;;;;1.01;72.37;97350.38;6271297;23;20016;-79
2023/01/28 07:27:48;;;;;;;13.02;8.48;;;;;;;1.00;72.06;97359.00;6270163;23;20024;-80
2023/01/28 07:30:16;;;;;;;12.18;8.32;;;;;;;1.00;72.40;97359.00;6251648;23;20054;-79
2023/01/28 07:32:44;;;;;;;12.55;8.93;;;;;;;1.00;72.22;97359.81;6247761;23;20016;-79
2023/01/28 07:35:12;;;;;;;13.60;8.65;;;;;;;0.99;71.55;97355.63;6260932;23;20036;-79
2023/01/28 07:37:40;;;;;;;13.20;8.60;;;;;;;0.97;71.84;97352.31;6256789;23;20039;-79
2023/01/28 07:40:10;;;;;;;15.32;9.07;;;;;;;0.98;71.68;97363.41;6245827;23;20102;-79
2023/01/28 07:42:38;;;;;;;12.88;9.10;;;;;;;0.99;71.64;97362.50;6246551;23;20046;-78
2023/01/28 07:45:08;;;;;;;12.45;7.95;;;;;;;1.01;71.81;97363.22;6246704;23;20047;-78
2023/01/28 07:47:36;;;;;;;13.00;8.52;;;;;;;1.02;71.67;97364.88;6247110;23;20020;-79
2023/01/28 07:50:04;;;;;;;15.13;9.65;;;;;;;1.01;71.65;97366.63;6245874;23;20020;-79
2023/01/28 07:52:37;;;;;;;13.00;8.82;;;;;;;1.04;71.70;97360.44;6245728;23;20020;-79
2023/01/28 07:55:04;;;;;;;;;;;;;;;1.11;72.00;97371.13;6246918;23;20395;-79
2023/01/28 07:57:32;;;;;;;11.10;8.02;;;;;;;1.11;71.76;97371.94;6246565;23;19924;-79
2023/01/28 08:00:00;;;;;;;14.00;9.75;;;;;;;1.11;71.81;97368.56;6246115;23;20053;-79
2023/01/28 08:02:29;;;;;;;14.32;9.88;;;;;;;1.14;71.81;97373.50;6246201;23;20095;-79
2023/01/28 08:04:58;;;;;;;15.10;10.05;;;;;;;1.16;71.73;97369.06;6246521;23;20027;-79
2023/01/28 08:07:25;;;;;;;15.50;10.23;;;;;;;1.15;71.50;97372.56;6245746;23;20530;-79
2023/01/28 08:09:53;;;;;;;14.23;9.55;;;;;;;1.14;71.32;97376.09;6245327;23;20022;-79
2023/01/28 08:12:20;;;;;;;17.10;10.38;;;;;;;1.13;71.71;97377.00;6246097;23;20043;-79
2023/01/28 08:14:48;;;;;;;16.52;10.38;;;;;;;1.14;71.77;97376.09;6246395;23;20028;-78
2023/01/28 08:17:15;;;;;;;15.73;9.65;;;;;;;1.14;71.27;97382.03;6245827;23;20020;-79
2023/01/28 08:19:44;;;;;;;15.35;10.10;;;;;;;1.13;71.27;97385.50;6245693;23;20031;-79
2023/01/28 08:22:12;;;;;;;13.65;9.20;;;;;;;1.11;71.53;97377.09;6246176;23;20095;-78
2023/01/28 08:24:40;;;;;;;16.58;10.18;;;;;;;1.10;71.18;97387.47;6246225;23;20026;-79
2023/01/28 08:27:07;;;;;;;14.50;9.60;;;;;;;1.10;71.59;97395.19;6246165;23;20051;-79
2023/01/28 08:29:35;;;;;;;13.82;9.07;;;;;;;1.09;71.18;97398.66;6245603;23;20099;-78
2023/01/28 08:32:02;;;;;;;14.57;8.95;;;;;;;1.09;71.22;97398.66;6246040;23;20024;-79
2023/01/28 08:34:30;;;;;;;16.20;11.00;;;;;;;1.09;71.58;97394.34;6245920;23;20044;-79
2023/01/28 08:36:59;;;;;;;15.25;10.55;;;;;;;1.10;71.41;97397.75;6245753;23;20016;-79
2023/01/28 08:39:27;;;;;;;16.50;11.05;;;;;;;1.10;71.47;97401.16;6245016;23;20016;-79
2023/01/28 08:41:54;;;;;;;16.88;11.25;;;;;;;1.10;71.73;97395.19;6245446;23;20020;-78
2023/01/28 08:44:22;;;;;;;16.35;10.80;;;;;;;1.11;71.90;97395.06;6245896;23;20042;-78
2023/01/28 08:46:49;;;;;;;19.05;10.88;;;;;;;1.13;71.66;97390.66;6246104;23;20031;-79
2023/01/28 08:49:17;;;;;;;15.60;10.27;;;;;;;1.16;71.63;97400.75;6245080;23;20102;-79
2023/01/28 08:51:44;;;;;;;18.77;11.63;;;;;;;1.15;71.56;97399.09;6246160;23;20103;-79
2023/01/28 08:54:13;;;;;;;18.20;10.80;;;;;;;1.17;71.63;97407.50;6246228;23;20215;-79
2023/01/28 08:56:43;;;;;;;17.38;11.23;;;;;;;1.16;71.51;97405.88;6246049;23;20027;-79
2023/01/28 08:59:11;;;;;;;16.55;11.40;;;;;;;1.19;71.43;97402.28;6245915;23;20347;-79
2023/01/28 09:01:38;;;;;;;16.63;10.55;;;;;;;1.18;71.22;97404.03;6245683;23;20087;-79
2023/01/28 09:04:06;;;;;;;15.82;10.45;;;;;;;1.18;71.29;97406.59;6246122;23;20066;-78
2023/01/28 09:06:34;;;;;;;15.90;9.73;;;;;;;1.18;71.11;97414.31;6245163;23;20091;-79
2023/01/28 09:09:02;;;;;;;15.60;10.65;;;;;;;1.15;71.51;97409.34;6245593;23;20026;-79
2023/01/28 09:11:31;;;;;;;15.30;10.38;;;;;;;1.14;71.08;97407.72;6252236;23;20099;-79
2023/01/28 09:13:58;;;;;;;17.20;10.88;;;;;;;1.16;71.69;97411.03;6251253;23;20020;-79
2023/01/28 09:16:26;;;;;;;18.23;11.88;;;;;;;1.17;71.49;97412.66;6246491;23;20031;-78
2023/01/28 09:18:54;;;;;;;16.45;10.93;;;;;;;1.20;71.99;97415.03;6245289;23;20129;-79
2023/01/28 09:21:21;;;;;;;18.48;11.50;;;;;;;1.29;73.91;97411.03;6245692;23;20096;-79
2023/01/28 09:23:49;;;;;;;18.27;11.65;;;;;;;1.38;73.29;97419.84;6245587;23;20012;-78
2023/01/28 09:26:16;;;;;;;19.00;12.00;;;;;;;1.39;72.01;97421.50;6245601;23;20027;-79
2023/01/28 09:28:47;;;;;;;17.80;11.05;;;;;;;1.37;71.88;97419.00;6244783;23;20453;-79
2023/01/28 09:31:14;;;;;;;21.70;11.68;;;;;;;1.40;72.12;97423.13;6246313;23;20532;-78
2023/01/28 09:33:42;;;;;;;20.50;12.20;;;;;;;1.44;72.05;97425.41;6245958;23;20456;-79
2023/01/28 09:36:11;;;;;;;17.35;11.43;;;;;;;1.45;71.64;97421.06;6245365;23;20066;-78
2023/01/28 09:38:38;;;;;;;19.27;11.95;;;;;;;1.50;72.24;97428.47;6245463;23;20103;-79
2023/01/28 09:41:22;;;;;;;19.23;12.23;;;;;;;1.52;71.76;97432.56;6245748;23;20043;-79
2023/01/28 09:44:08;;;;;;;18.92;11.95;;;;;;;1.56;71.96;97428.88;6246313;23;20396;-78
2023/01/28 09:46:37;;;;;;;16.63;10.70;;;;;;;1.61;72.61;97437.09;6245574;23;20074;-78
2023/01/28 09:49:17;;;;;;;17.95;12.32;;;;;;;1.67;71.97;97442.75;6244725;23;20020;-79
2023/01/28 09:51:50;;;;;;;16.40;11.18;;;;;;;1.70;71.93;97445.09;6245483;23;20482;-78
2023/01/28 09:54:24;;;;;;;;;;;;;;;1.76;72.16;97449.84;6246341;23;20091;-79
2023/01/28 09:56:58;;;;;;;18.52;12.30;;;;;;;1.76;71.34;97449.84;6246567;23;19935;-79
2023/01/28 09:59:35;;;;;;;14.43;10.07;;;;;;;1.74;70.96;97451.69;6247193;23;20081;-78
2023/01/28 10:02:21;;;;;;;17.70;11.48;;;;;;;1.69;70.31;97446.03;6247953;23;20095;-78
2023/01/28 10:04:58;;;;;;;17.90;10.80;;;;;;;1.63;70.40;97450.66;6247697;23;20047;-79
2023/01/28 10:07:36;;;;;;;21.85;11.35;;;;;;;1.60;70.68;97445.75;6247227;23;20026;-78
2023/01/28 10:10:09;;;;;;;16.67;11.95;;;;;;;1.56;70.82;97441.72;6246444;23;20024;-78
2023/01/28 10:13:04;;;;;;;18.48;11.85;;;;;;;1.54;71.26;97446.16;6247624;23;20020;-78
2023/01/28 10:15:53;;;;;;;17.15;10.95;;;;;;;1.54;70.98;97441.00;6247500;23;20024;-80
2023/01/28 10:18:30;;;;;;;20.70;12.52;;;;;;;1.55;71.15;97439.25;6247250;23;20094;-79
2023/01/28 10:21:06;;;;;;;16.77;10.57;;;;;;;1.56;70.99;97436.59;6247470;23;20051;-79
2023/01/28 10:23:43;;;;;;;18.02;11.95;;;;;;;1.58;71.32;97436.50;6247490;23;20044;-79
2023/01/28 10:26:22;;;;;;;21.67;11.95;;;;;;;1.61;71.20;97436.28;6247007;23;20054;-79
2023/01/28 10:28:54;;;;;;;18.27;12.07;;;;;;;1.62;71.02;97432.78;6246756;23;20099;-79
2023/01/28 10:31:30;;;;;;;18.30;11.80;;;;;;;1.67;71.17;97432.47;6247893;23;20027;-79
2023/01/28 10:33:58;;;;;;;17.50;10.30;;;;;;;1.67;70.82;97432.47;6247255;23;20024;-79
2023/01/28 10:36:26;;;;;;;19.67;11.10;;;;;;;1.71;71.34;97431.34;6246744;23;21736;-79
2023/01/28 10:38:54;;;;;;;18.88;11.18;;;;;;;1.75;70.80;97436.16;6246585;23;20093;-78
2023/01/28 10:41:24;;;;;;;17.30;11.73;;;;;;;1.75;70.40;97428.44;6246967;23;20020;-79
2023/01/28 10:43:52;;;;;;;13.88;9.55;;;;;;;1.72;70.48;97438.09;6247301;23;20116;-79
2023/01/28 10:46:23;;;;;;;14.65;9.57;;;;;;;1.69;70.40;97438.31;6246792;23;20020;-79
2023/01/28 10:49:02;;;;;;;15.05;9.45;;;;;;;1.67;70.15;97435.03;6246263;23;20409;-79
2023/01/28 10:51:31;;;;;;;16.92;9.65;;;;;;;1.64;70.49;97431.75;6247839;23;20095;-79
2023/01/28 10:53:59;;;;;;;15.93;9.98;;;;;;;1.62;70.78;97428.47;6246637;23;20013;-79
2023/01/28 10:56:29;;;;;;;16.83;10.15;;;;;;;1.63;70.18;97426.69;6246350;23;20050;-79
2023/01/28 10:59:00;;;;;;;18.35;10.93;;;;;;;1.63;70.36;97424.94;6246442;23;20020;-79
2023/01/28 11:01:39;;;;;;;17.52;10.60;;;;;;;1.68;70.45;97428.94;6247099;23;20031;-79
2023/01/28 11:04:19;;;;;;;16.17;9.90;;;;;;;1.72;70.59;97426.06;6247313;23;20031;-78
2023/01/28 11:06:56;;;;;;;15.30;9.95;;;;;;;1.80;71.34;97428.94;6246427;23;20051;-79
2023/01/28 11:09:26;;;;;;;17.48;10.07;;;;;;;1.85;70.54;97423.47;6246326;23;20360;-79
2023/01/28 11:11:54;;;;;;;17.02;11.05;;;;;;;1.89;70.66;97426.66;6247457;23;20024;-79
2023/01/28 11:14:24;;;;;;;18.95;11.38;;;;;;;1.90;70.47;97429.09;6246745;23;20020;-79
2023/01/28 11:16:55;;;;;;;17.38;10.70;;;;;;;1.89;70.32;97431.81;6246087;23;20119;-79
2023/01/28 11:19:29;;;;;;;17.90;10.73;;;;;;;1.87;70.16;97431.91;6245827;23;20055;-79
2023/01/28 11:21:58;;;;;;;17.27;11.10;;;;;;;1.85;70.17;97424.28;6247035;23;20356;-78
2023/01/28 11:24:30;;;;;;;19.67;11.88;;;;;;;1.86;70.06;97425.13;6246896;23;20027;-79
2023/01/28 11:27:00;;;;;;;19.37;11.43;;;;;;;1.89;70.52;97427.47;6247090;23;20412;-79
2023/01/28 11:29:31;;;;;;;22.52;13.20;;;;;;;1.92;70.32;97434.97;6246484;23;20077;-79
2023/01/28 11:31:59;;;;;;;23.85;14.10;;;;;;;1.96;70.68;97431.25;6258754;23;20020;-79
2023/01/28 11:34:35;;;;;;;20.88;12.77;;;;;;;1.98;71.63;97434.53;6262775;23;20066;-79
2023/01/28 11:37:04;;;;;;;23.45;13.07;;;;;;;2.01;71.08;97439.50;6253912;23;20020;-79
2023/01/28 11:39:32;;;;;;;23.42;13.75;;;;;;;2.02;70.41;97433.41;6246347;23;20024;-79
2023/01/28 11:42:17;;;;;;;21.73;13.55;;;;;;;2.02;70.28;97430.81;6247235;23;20024;-78
2023/01/28 11:44:46;;;;;;;23.40;14.07;;;;;;;2.03;70.37;97435.06;6247074;23;20017;-79
2023/01/28 11:47:35;;;;;;;23.13;13.65;;;;;;;2.06;70.32;97432.25;6247905;23;20020;-79
2023/01/28 11:50:28;;;;;;;22.92;12.73;;;;;;;2.05;70.76;97437.50;6246666;23;20067;-79
2023/01/28 11:53:06;;;;;;;22.10;13.50;;;;;;;2.05;70.59;97433.16;6248101;23;20036;-79
2023/01/28 11:55:41;;;;;;;27.85;15.07;;;;;;;2.03;70.23;97429.91;6246946;23;20078;-79
2023/01/28 11:58:21;;;;;;;25.23;14.18;;;;;;;1.99;70.33;97431.06;6247412;23;20072;-79
2023/01/28 12:01:00;;;;;;;22.00;13.40;;;;;;;1.98;70.97;97426.81;6248105;23;20027;-79
2023/01/28 12:03:43;;;;;;;23.58;13.10;;;;;;;2.03;70.87;97427.34;6246769;23;20098;-79
2023/01/28 12:06:28;;;;;;;24.08;13.25;;;;;;;2.05;70.81;97428.03;6246601;23;20068;-79
2023/01/28 12:09:08;;;;;;;24.70;13.80;;;;;;;2.04;70.79;97418.66;6246506;23;20030;-79
2023/01/28 12:14:42;;;;;;;19.77;12.05;;;;;;;2.06;70.66;97421.97;6247123;23;20378;-78
2023/01/28 12:17:25;;;;;;;19.50;11.95;;;;;;;2.07;70.19;97417.63;6246012;23;20058;-79
2023/01/28 12:20:05;;;;;;;22.27;12.55;;;;;;;2.10;70.21;97419.16;6244970;23;20020;-78